Aérodrome :
LOGIN :

S'inscrire | Disclaimer

   EN    FR    IT 

 










Légende :    VFR   VFR Marginal   IFR   IFR Intensif   IFR Très Intensif
Visi : 
Plafond : 
>= 8 km
>= 3000ft
5 à 8 km
1000 à 3000 ft
1500m à 5 km
500 à 1000 ft
800 à 1500m
200 à 500 ft
< 800m
< 200 ft
Symboles :   Orages  Brouillard  Fortes neiges  Fortes précipitations  Vent > 20 kt
SIGMETs :   Divers  Orages  Givrage  Turbulence  Onde Orograph.  Cendres Volcan.







- Altitude de l'aérodrome : 645 ft
- Code IATA : DLE
- Voir les cartes d'approche


LFGJ - Dole Tavaux

DERNIER METAR :
  • 210000Z AUTO 29008KT 9999 -RA SCT025/// SCT039/// BKN052/// ///CB 10/08 Q1007

METARs EXPIRÉS :
  • 202330Z AUTO 31006KT 9999 -RADZ SCT029/// BKN036/// BKN046/// ///TCU 10/08 Q1006
  • 202300Z AUTO 29005KT 250V330 9999 -RA FEW010/// BKN027/// BKN032/// ///TCU 10/09 Q1006
  • 202230Z AUTO 23010KT 9999 FEW016/// BKN026/// BKN033/// ///TCU 09/09 Q1005
  • 202200Z AUTO 22013KT 9999 BKN005/// BKN010/// BKN025/// ///TCU 09/09 Q1004
  • 202130Z AUTO 21016KT 9999 SCT006/// BKN023/// OVC033/// ///TCU 09/09 Q1004

Prévision TAF périmée.
Pas de NOTAMs connus pour ce terrain.
1 SIGMET publié pour la FIR Reims (LFEE) :
 
Turbulence forte
LFEE SIGMET 7 VALID 202100/210100 LFPW
LFEE REIMS FIR/UIR SEV TURB FCST WI N4815 E00530 - N4830 E00530 - N4900 E00445 - N4930 E00600 - N4900 E00815 - N4730 E00730 - N4700 E00700 - N4815 E00530 FL180/290 MOV NE 20KT NC=



MET'MAP, la Météo Aéronautique d'un coup d'oeil ! - Copyright ORBIFLY Décembre 2007 - Disclaimer

ORBIFLY MET'MAP TEAM :

Programmation & Développement : Alexandra Zaïnal
Conception & Développement : Baudouin d'Aumeries
Co-Programmation & Développement : Marc-Olivier Méhu
Soutien technique & logistique : Manuel Goepfert

Contact : metmap@orbifly.com




SOURCES & CREDITS :

   NOAA